Time;durP1;ratioP1;P1;durP2;ratioP2;P2;SDS_P1;SDS_P2;PMS_P1;PMS_P2;Temp;Humidity;BMP_temperature;BMP_pressure;BME280_temperature;BME280_humidity;BME280_pressure;Samples;Min_cycle;Max_cycle;Signal;HPM_P1;HPM_P2
2024/01/15 00:01:59;;;;;;;4.80;1.20;;;5.80;77.30;;;;;;5094836;28;20105;-73
2024/01/15 00:04:24;;;;;;;4.53;1.60;;;5.70;77.20;;;;;;5092834;28;20012;-72
2024/01/15 00:06:50;;;;;;;8.53;1.70;;;5.70;77.20;;;;;;5093610;28;20439;-72
2024/01/15 00:09:16;;;;;;;4.53;1.30;;;5.70;77.20;;;;;;5094053;28;20039;-73
2024/01/15 00:11:42;;;;;;;7.17;1.40;;;5.70;77.30;;;;;;5092809;28;20111;-72
2024/01/15 00:14:09;;;;;;;5.70;1.00;;;5.60;77.20;;;;;;5094370;28;20032;-72
2024/01/15 00:16:34;;;;;;;5.37;1.40;;;5.60;77.20;;;;;;5092898;28;20032;-72
2024/01/15 00:19:00;;;;;;;7.30;1.77;;;5.60;77.10;;;;;;5108987;28;20042;-72
2024/01/15 00:21:27;;;;;;;5.40;1.50;;;5.60;77.20;;;;;;5092031;28;20027;-72
2024/01/15 00:23:53;;;;;;;4.57;1.40;;;5.60;77.10;;;;;;5109413;28;20107;-72
2024/01/15 00:26:19;;;;;;;4.13;1.23;;;5.60;77.10;;;;;;5094026;28;20108;-72
2024/01/15 00:28:45;;;;;;;5.17;1.60;;;5.60;77.10;;;;;;5092991;28;20456;-73
2024/01/15 00:31:10;;;;;;;5.10;1.30;;;5.60;77.80;;;;;;5092081;28;20031;-72
2024/01/15 00:33:36;;;;;;;5.53;1.47;;;5.50;77.00;;;;;;5095513;28;20040;-72
2024/01/15 00:36:03;;;;;;;8.20;1.30;;;5.50;77.00;;;;;;5092853;28;20123;-72
2024/01/15 00:38:28;;;;;;;6.67;1.30;;;5.50;77.00;;;;;;5092964;28;20028;-72
2024/01/15 00:40:54;;;;;;;5.27;1.50;;;5.50;76.90;;;;;;5075227;28;21124;-72
2024/01/15 00:43:21;;;;;;;3.53;1.20;;;5.50;76.90;;;;;;5108856;28;20441;-72
2024/01/15 00:45:46;;;;;;;7.90;1.70;;;5.50;76.90;;;;;;5093341;28;20031;-72
2024/01/15 00:48:12;;;;;;;7.70;1.40;;;5.50;76.90;;;;;;5092635;28;20039;-72
2024/01/15 00:50:38;;;;;;;6.23;1.67;;;5.50;76.90;;;;;;5092298;28;20032;-72
2024/01/15 00:53:04;;;;;;;6.23;1.50;;;5.40;76.80;;;;;;5092827;28;20041;-72
2024/01/15 00:55:29;;;;;;;6.20;1.50;;;5.50;76.80;;;;;;5092903;28;20032;-72
2024/01/15 00:57:55;;;;;;;3.20;1.10;;;5.50;76.80;;;;;;5092592;28;20031;-72
2024/01/15 01:00:21;;;;;;;4.40;1.40;;;5.40;76.70;;;;;;5092337;28;20024;-72
2024/01/15 01:02:47;;;;;;;7.33;1.47;;;5.40;76.60;;;;;;5093109;28;20106;-72
2024/01/15 01:05:13;;;;;;;6.33;1.63;;;5.40;76.60;;;;;;5091868;28;20016;-72
2024/01/15 01:07:38;;;;;;;4.83;1.10;;;5.40;76.60;;;;;;5097999;28;20408;-72
2024/01/15 01:10:04;;;;;;;8.83;1.60;;;5.40;76.60;;;;;;5092206;28;20028;-72
2024/01/15 01:12:30;;;;;;;3.40;1.10;;;5.40;76.60;;;;;;5091321;28;20027;-72
2024/01/15 01:14:56;;;;;;;6.87;1.00;;;5.40;76.50;;;;;;5091977;28;20382;-72
2024/01/15 01:17:22;;;;;;;4.30;1.23;;;5.30;76.50;;;;;;5100004;28;20032;-72
2024/01/15 01:19:49;;;;;;;6.50;1.67;;;5.40;76.50;;;;;;5092903;28;20415;-72
2024/01/15 01:22:15;;;;;;;4.87;1.30;;;5.30;76.50;;;;;;5091840;28;20379;-72
2024/01/15 01:24:41;;;;;;;2.93;1.10;;;5.30;76.40;;;;;;5092311;28;20020;-72
2024/01/15 01:27:07;;;;;;;5.93;1.20;;;5.30;76.50;;;;;;5091916;28;20337;-72
2024/01/15 01:29:32;;;;;;;6.00;1.40;;;5.30;76.50;;;;;;5093149;28;20034;-72
2024/01/15 01:31:58;;;;;;;6.53;1.40;;;5.20;76.40;;;;;;5090183;28;20056;-72
2024/01/15 01:34:24;;;;;;;6.73;1.60;;;5.30;76.40;;;;;;5087703;28;20024;-72
2024/01/15 01:36:50;;;;;;;5.83;1.10;;;5.20;76.40;;;;;;5091434;28;20024;-72
2024/01/15 01:39:15;;;;;;;5.67;1.10;;;5.20;76.40;;;;;;5092192;28;20059;-72
2024/01/15 01:41:41;;;;;;;6.60;1.67;;;5.20;76.40;;;;;;5093993;28;20015;-73
2024/01/15 01:44:07;;;;;;;4.83;1.40;;;5.20;76.30;;;;;;5092071;28;20365;-72
2024/01/15 01:46:39;;;;;;;6.47;1.07;;;5.20;76.30;;;;;;5093446;28;20032;-72
2024/01/15 01:49:06;;;;;;;5.47;1.67;;;5.20;76.30;;;;;;5102143;28;20047;-72
2024/01/15 01:51:33;;;;;;;7.20;1.67;;;5.20;76.30;;;;;;5093039;28;20024;-72
2024/01/15 01:53:59;;;;;;;8.00;1.20;;;5.20;76.30;;;;;;5097007;28;20357;-72
2024/01/15 01:56:26;;;;;;;6.60;1.57;;;5.20;76.20;;;;;;5096014;28;20039;-72
2024/01/15 01:58:51;;;;;;;4.20;1.17;;;5.20;76.20;;;;;;5095845;28;20027;-72
2024/01/15 02:01:18;;;;;;;4.93;1.53;;;5.20;76.30;;;;;;5097294;28;20023;-72
2024/01/15 02:03:44;;;;;;;6.20;1.10;;;5.20;76.30;;;;;;5097193;28;20340;-72
2024/01/15 02:06:10;;;;;;;7.57;1.90;;;5.20;76.30;;;;;;5079058;28;20340;-72
2024/01/15 02:08:36;;;;;;;9.73;2.07;;;5.10;76.20;;;;;;5093812;28;20032;-72
2024/01/15 02:11:02;;;;;;;5.10;1.13;;;5.10;76.20;;;;;;5097174;28;20333;-72
2024/01/15 02:13:28;;;;;;;6.27;1.50;;;5.10;76.20;;;;;;5095456;28;20032;-72
2024/01/15 02:15:54;;;;;;;3.90;1.40;;;5.10;76.20;;;;;;5094781;28;20032;-72
2024/01/15 02:18:22;;;;;;;5.90;1.70;;;5.10;76.10;;;;;;5105630;28;20035;-72
2024/01/15 02:20:48;;;;;;;3.67;1.10;;;5.10;76.10;;;;;;5096682;28;20074;-72
2024/01/15 02:23:14;;;;;;;7.57;1.70;;;5.10;76.10;;;;;;5095461;28;20028;-72
2024/01/15 02:25:43;;;;;;;4.93;1.50;;;5.10;76.10;;;;;;5097499;28;20051;-72
2024/01/15 02:28:11;;;;;;;5.87;1.30;;;5.10;76.20;;;;;;5078462;28;20025;-72
2024/01/15 02:30:41;;;;;;;5.03;1.87;;;5.10;76.20;;;;;;5095549;28;20040;-72
2024/01/15 02:33:07;;;;;;;11.00;2.17;;;5.00;76.10;;;;;;5094744;28;20403;-72
2024/01/15 02:35:36;;;;;;;5.57;1.13;;;5.10;76.10;;;;;;5077999;28;20032;-72
2024/01/15 02:38:02;;;;;;;5.60;1.37;;;5.10;76.10;;;;;;5096007;28;20028;-72
2024/01/15 02:40:28;;;;;;;7.73;2.13;;;5.00;75.90;;;;;;5102773;27;20106;-72
2024/01/15 02:42:54;;;;;;;8.07;1.17;;;5.00;75.90;;;;;;5094113;28;20103;-72
2024/01/15 02:45:21;;;;;;;7.57;1.43;;;5.00;76.50;;;;;;5095507;28;20031;-72
2024/01/15 02:47:47;;;;;;;10.43;1.90;;;5.00;75.90;;;;;;5097141;28;20027;-72
2024/01/15 02:50:13;;;;;;;7.67;1.40;;;5.00;75.90;;;;;;5095190;28;20169;-72
2024/01/15 02:52:38;;;;;;;4.70;1.10;;;5.10;75.90;;;;;;5095439;28;20028;-72
2024/01/15 02:55:04;;;;;;;5.43;1.27;;;5.10;75.90;;;;;;5096109;28;20051;-72
2024/01/15 02:57:30;;;;;;;5.90;1.47;;;5.10;75.90;;;;;;5111259;28;20046;-72
2024/01/15 02:59:56;;;;;;;5.03;1.07;;;5.10;75.80;;;;;;5094055;28;20352;-72
2024/01/15 03:02:22;;;;;;;4.93;1.30;;;5.10;75.80;;;;;;5094683;28;20137;-72
2024/01/15 03:04:47;;;;;;;5.20;1.40;;;5.10;75.80;;;;;;5093915;28;20026;-72
2024/01/15 03:07:13;;;;;;;3.63;1.17;;;5.10;75.80;;;;;;5097074;28;20034;-72
2024/01/15 03:09:39;;;;;;;6.90;1.20;;;5.20;75.80;;;;;;5094196;28;20032;-72
2024/01/15 03:12:05;;;;;;;4.73;1.20;;;5.10;75.70;;;;;;5094636;28;20012;-72
2024/01/15 03:14:31;;;;;;;7.60;1.43;;;5.20;75.80;;;;;;5095466;28;20090;-72
2024/01/15 03:16:57;;;;;;;8.67;1.30;;;5.20;75.80;;;;;;5095261;28;20482;-72
2024/01/15 03:19:22;;;;;;;7.63;1.53;;;5.10;75.80;;;;;;5093423;28;20035;-72
2024/01/15 03:21:48;;;;;;;4.30;1.40;;;5.10;75.90;;;;;;5094756;28;20081;-72
2024/01/15 03:24:14;;;;;;;5.90;1.10;;;5.10;75.90;;;;;;5092474;28;20345;-72
2024/01/15 03:26:40;;;;;;;10.67;2.10;;;5.10;76.00;;;;;;5093861;28;20419;-72
2024/01/15 03:29:07;;;;;;;6.30;1.20;;;5.10;75.90;;;;;;5093603;28;20020;-72
2024/01/15 03:31:33;;;;;;;6.03;1.10;;;5.10;75.90;;;;;;5107855;28;20074;-72
2024/01/15 03:33:58;;;;;;;6.00;1.37;;;5.10;76.00;;;;;;5092907;28;20072;-72
2024/01/15 03:36:24;;;;;;;10.23;1.70;;;5.10;76.00;;;;;;5095114;28;20019;-72
2024/01/15 03:38:50;;;;;;;5.17;1.10;;;5.10;76.00;;;;;;5093650;28;20073;-73
2024/01/15 03:41:15;;;;;;;5.67;1.57;;;5.00;76.00;;;;;;5094135;28;20077;-72
2024/01/15 03:43:41;;;;;;;5.67;1.33;;;5.00;75.90;;;;;;5094396;28;20024;-72
2024/01/15 03:46:07;;;;;;;5.97;1.40;;;5.00;76.00;;;;;;5094374;28;20028;-72
2024/01/15 03:48:33;;;;;;;6.33;1.50;;;5.00;75.90;;;;;;5095937;28;20067;-72
2024/01/15 03:50:59;;;;;;;6.00;1.97;;;5.10;76.00;;;;;;5093960;28;20543;-72
2024/01/15 03:53:24;;;;;;;5.83;1.30;;;5.00;75.80;;;;;;5094892;28;20028;-72
2024/01/15 03:55:50;;;;;;;7.57;1.63;;;5.00;75.80;;;;;;5093962;28;20116;-72
2024/01/15 03:58:16;;;;;;;4.60;1.10;;;5.00;75.80;;;;;;5092248;28;20028;-72
2024/01/15 04:00:42;;;;;;;4.47;1.23;;;5.00;75.90;;;;;;5093752;28;20028;-72
2024/01/15 04:03:08;;;;;;;4.07;1.40;;;5.00;75.90;;;;;;5093526;28;20425;-72
2024/01/15 04:05:34;;;;;;;4.67;1.00;;;5.00;75.90;;;;;;5109472;28;20023;-72
2024/01/15 04:08:00;;;;;;;7.80;1.33;;;5.00;75.90;;;;;;5094006;28;20035;-72
2024/01/15 04:10:26;;;;;;;8.53;1.50;;;5.10;75.90;;;;;;5107739;28;20340;-72
2024/01/15 04:12:52;;;;;;;6.00;1.60;;;5.10;75.90;;;;;;5093363;28;20020;-72
2024/01/15 04:15:17;;;;;;;4.93;1.10;;;5.10;75.90;;;;;;5093141;28;20035;-72
2024/01/15 04:17:43;;;;;;;6.23;1.33;;;5.10;75.90;;;;;;5092906;28;20039;-72
2024/01/15 04:20:10;;;;;;;1.90;0.80;;;5.10;75.90;;;;;;5093374;28;20020;-72
2024/01/15 04:22:37;;;;;;;4.73;1.57;;;5.10;75.90;;;;;;5076167;28;20038;-72
2024/01/15 04:25:03;;;;;;;3.80;1.07;;;5.10;75.90;;;;;;5093300;28;20026;-72
2024/01/15 04:27:29;;;;;;;3.13;1.20;;;5.10;75.90;;;;;;5092790;28;20070;-73
2024/01/15 04:29:55;;;;;;;3.63;1.33;;;5.10;76.00;;;;;;5093261;28;20016;-72
2024/01/15 04:32:20;;;;;;;5.03;1.17;;;5.00;75.90;;;;;;5094122;28;20349;-73
2024/01/15 04:34:46;;;;;;;5.90;1.30;;;5.10;76.00;;;;;;5109750;28;20390;-72
2024/01/15 04:37:13;;;;;;;6.63;1.57;;;5.10;76.00;;;;;;5092166;28;20465;-72
2024/01/15 04:39:39;;;;;;;6.70;1.30;;;5.00;75.90;;;;;;5094381;28;20024;-72
2024/01/15 04:42:05;;;;;;;5.90;1.67;;;5.00;76.00;;;;;;5092376;28;20122;-72
2024/01/15 04:44:31;;;;;;;6.73;1.17;;;5.00;76.00;;;;;;5074692;28;20032;-72
2024/01/15 04:46:57;;;;;;;6.43;1.83;;;5.00;76.00;;;;;;5093942;28;20024;-72
2024/01/15 04:49:22;;;;;;;6.70;1.70;;;5.00;76.00;;;;;;5093608;28;20024;-72
2024/01/15 04:51:48;;;;;;;6.97;1.77;;;5.00;76.00;;;;;;5094487;28;20046;-72
2024/01/15 04:54:17;;;;;;;4.73;1.50;;;5.00;76.10;;;;;;5107346;28;20024;-72
2024/01/15 04:56:44;;;;;;;4.60;1.03;;;5.00;76.10;;;;;;5106302;28;20034;-72
2024/01/15 04:59:10;;;;;;;8.23;1.57;;;5.00;76.10;;;;;;5093839;28;20024;-72
2024/01/15 05:01:36;;;;;;;6.17;1.30;;;5.00;76.00;;;;;;5094625;28;20421;-72
2024/01/15 05:04:02;;;;;;;6.07;1.40;;;4.90;76.00;;;;;;5093516;28;20095;-72
2024/01/15 05:06:28;;;;;;;8.23;1.57;;;4.90;76.10;;;;;;5091953;28;20338;-72
2024/01/15 05:08:54;;;;;;;11.07;1.60;;;4.90;76.10;;;;;;5093766;28;20064;-72
2024/01/15 05:11:20;;;;;;;6.70;1.80;;;4.90;76.20;;;;;;5091996;28;20024;-72
2024/01/15 05:13:45;;;;;;;5.73;1.40;;;4.90;76.30;;;;;;5105387;28;20059;-72
2024/01/15 05:16:11;;;;;;;4.87;1.40;;;4.90;76.30;;;;;;5096554;28;20055;-72
2024/01/15 05:18:37;;;;;;;7.17;1.40;;;4.90;76.30;;;;;;5094165;28;20046;-72
2024/01/15 05:21:03;;;;;;;7.70;1.77;;;4.90;76.20;;;;;;5076584;28;20036;-72
2024/01/15 05:23:31;;;;;;;7.43;1.43;;;4.90;76.20;;;;;;5061942;28;20043;-71
2024/01/15 05:25:57;;;;;;;5.17;1.17;;;4.90;76.20;;;;;;5076814;28;20056;-72
2024/01/15 05:28:23;;;;;;;7.10;1.23;;;4.90;76.20;;;;;;5069420;28;20475;-72
2024/01/15 05:30:50;;;;;;;9.73;1.77;;;4.90;76.10;;;;;;5079952;28;20028;-72
2024/01/15 05:33:17;;;;;;;5.17;1.30;;;4.90;76.10;;;;;;5085543;28;20094;-72
2024/01/15 05:35:43;;;;;;;5.00;1.07;;;4.90;76.10;;;;;;5084668;28;20336;-71
2024/01/15 05:38:08;;;;;;;6.83;1.20;;;4.90;76.10;;;;;;5093962;28;20024;-72
2024/01/15 05:40:34;;;;;;;8.40;1.70;;;4.90;76.00;;;;;;5096346;28;20020;-72
2024/01/15 05:43:00;;;;;;;8.30;2.20;;;4.90;76.10;;;;;;5084100;28;20353;-71
2024/01/15 05:45:30;;;;;;;6.33;1.33;;;4.90;76.00;;;;;;5096755;28;20424;-72
2024/01/15 05:47:56;;;;;;;6.00;1.10;;;4.90;76.00;;;;;;5097136;28;20169;-72
2024/01/15 05:50:22;;;;;;;7.00;1.53;;;4.90;76.00;;;;;;5095791;28;20051;-72
2024/01/15 05:52:48;;;;;;;8.00;1.67;;;5.00;76.70;;;;;;5079286;28;20028;-72
2024/01/15 05:55:14;;;;;;;4.70;1.33;;;5.00;76.00;;;;;;5089518;28;20463;-72
2024/01/15 05:57:40;;;;;;;3.30;1.10;;;5.00;76.00;;;;;;5087390;28;20017;-72
2024/01/15 06:00:06;;;;;;;4.27;1.43;;;5.00;76.10;;;;;;5088730;28;20050;-72
2024/01/15 06:02:32;;;;;;;5.70;1.20;;;4.90;76.10;;;;;;5075233;28;20146;-72
2024/01/15 06:04:58;;;;;;;5.93;1.20;;;4.90;76.30;;;;;;5079268;28;20054;-73
2024/01/15 06:07:24;;;;;;;2.40;0.80;;;4.90;76.20;;;;;;5092548;28;20024;-72
2024/01/15 06:09:49;;;;;;;4.33;1.30;;;4.90;76.30;;;;;;5081069;28;20020;-72
2024/01/15 06:12:15;;;;;;;3.30;1.33;;;4.90;76.40;;;;;;5086726;28;20028;-72
2024/01/15 06:14:42;;;;;;;3.23;1.10;;;4.90;76.40;;;;;;5092762;28;20438;-72
2024/01/15 06:17:08;;;;;;;3.47;1.40;;;4.90;76.40;;;;;;5086452;28;20020;-72
2024/01/15 06:19:34;;;;;;;4.77;1.37;;;5.00;76.50;;;;;;5094237;28;20411;-73
2024/01/15 06:21:59;;;;;;;4.30;1.20;;;5.00;76.50;;;;;;5094547;28;20042;-72
2024/01/15 06:24:25;;;;;;;5.20;1.30;;;5.00;76.50;;;;;;5096152;28;20024;-72
2024/01/15 06:26:51;;;;;;;4.47;1.10;;;5.00;76.50;;;;;;5094675;28;20044;-73
2024/01/15 06:29:17;;;;;;;3.60;1.13;;;5.00;76.60;;;;;;5094634;28;20032;-73
2024/01/15 06:31:42;;;;;;;3.53;1.07;;;5.00;76.60;;;;;;5094984;28;20032;-72
2024/01/15 06:34:08;;;;;;;6.13;1.43;;;5.00;76.70;;;;;;5084576;28;20105;-72
2024/01/15 06:36:34;;;;;;;3.33;1.33;;;5.00;76.70;;;;;;5094193;28;20107;-72
2024/01/15 06:39:00;;;;;;;4.60;1.57;;;5.00;76.70;;;;;;5091861;28;20078;-72
2024/01/15 06:41:25;;;;;;;3.60;0.97;;;5.00;76.70;;;;;;5092001;28;20028;-72
2024/01/15 06:43:51;;;;;;;2.20;0.90;;;5.00;76.80;;;;;;5094541;28;20054;-73
2024/01/15 06:46:21;;;;;;;5.63;1.30;;;5.00;76.90;;;;;;5093490;28;20076;-70
2024/01/15 06:48:48;;;;;;;4.27;1.47;;;5.00;76.80;;;;;;5092933;28;20444;-72
2024/01/15 06:51:13;;;;;;;2.80;1.20;;;5.00;76.90;;;;;;5094684;28;20024;-72
2024/01/15 06:53:39;;;;;;;5.37;1.53;;;4.90;76.90;;;;;;5094432;28;20032;-73
2024/01/15 06:56:05;;;;;;;5.50;1.37;;;4.90;76.90;;;;;;5094217;28;20466;-72
2024/01/15 06:58:31;;;;;;;3.07;1.27;;;4.90;77.00;;;;;;5092136;28;20093;-72
2024/01/15 07:00:57;;;;;;;3.33;1.23;;;4.90;77.00;;;;;;5094824;28;20028;-72
2024/01/15 07:03:23;;;;;;;3.90;1.60;;;4.80;77.00;;;;;;5091541;28;20024;-72
2024/01/15 07:05:49;;;;;;;4.43;1.50;;;4.80;77.00;;;;;;5094137;28;20034;-69
2024/01/15 07:08:15;;;;;;;5.63;2.10;;;4.80;77.00;;;;;;5094104;28;20020;-70
2024/01/15 07:10:41;;;;;;;4.53;1.97;;;4.80;77.00;;;;;;5095001;28;20032;-69
2024/01/15 07:13:07;;;;;;;4.87;1.90;;;4.80;77.00;;;;;;5092161;28;20431;-69
2024/01/15 07:15:32;;;;;;;5.70;2.20;;;4.80;77.10;;;;;;5094040;28;20103;-69
2024/01/15 07:17:58;;;;;;;5.13;2.23;;;4.70;77.10;;;;;;5094027;28;20488;-69
2024/01/15 07:20:24;;;;;;;5.53;2.60;;;4.80;77.20;;;;;;5092416;28;20341;-70
2024/01/15 07:22:50;;;;;;;6.30;2.63;;;4.80;77.20;;;;;;5093773;28;20080;-70
2024/01/15 07:25:16;;;;;;;8.13;3.30;;;4.70;77.10;;;;;;5092779;28;20043;-70
2024/01/15 07:27:44;;;;;;;6.03;2.83;;;4.80;77.10;;;;;;5093821;28;20533;-69
2024/01/15 07:30:11;;;;;;;5.13;2.63;;;4.70;77.10;;;;;;5093709;28;20027;-70
2024/01/15 07:32:37;;;;;;;5.90;2.83;;;4.80;77.20;;;;;;5037719;28;1475605;-69
2024/01/15 07:35:03;;;;;;;5.97;3.13;;;4.80;77.10;;;;;;5092893;28;20346;-72
2024/01/15 07:37:29;;;;;;;7.03;3.23;;;4.80;77.10;;;;;;5084520;28;20381;-73
2024/01/15 07:39:55;;;;;;;7.00;3.67;;;4.70;77.20;;;;;;5094536;28;20059;-72
2024/01/15 07:42:21;;;;;;;6.40;3.37;;;4.80;77.20;;;;;;5081510;28;20103;-73
2024/01/15 07:44:46;;;;;;;7.33;3.37;;;4.80;77.20;;;;;;5093138;28;20032;-75
2024/01/15 07:47:12;;;;;;;6.90;3.47;;;4.80;77.20;;;;;;5092299;28;20020;-74
2024/01/15 07:49:38;;;;;;;6.70;3.40;;;4.80;77.10;;;;;;5093836;28;20031;-74
2024/01/15 07:52:05;;;;;;;6.13;3.53;;;4.80;77.20;;;;;;5092445;28;20027;-73
2024/01/15 07:54:31;;;;;;;6.30;3.43;;;4.80;77.20;;;;;;5091427;28;20096;-72
2024/01/15 07:56:59;;;;;;;6.00;3.23;;;4.80;77.20;;;;;;5093009;28;20035;-72
2024/01/15 07:59:25;;;;;;;6.90;3.40;;;4.80;77.30;;;;;;5102634;28;20040;-72
2024/01/15 08:01:52;;;;;;;6.30;3.57;;;4.80;77.30;;;;;;5092845;28;20027;-76
2024/01/15 08:04:18;;;;;;;7.43;3.67;;;4.80;77.20;;;;;;5094436;28;20046;-75
2024/01/15 08:06:44;;;;;;;7.47;3.70;;;4.80;77.20;;;;;;5091611;28;20126;-72
2024/01/15 08:09:11;;;;;;;6.33;3.30;;;4.80;77.20;;;;;;5093165;28;20031;-75
2024/01/15 08:11:40;;;;;;;6.10;3.53;;;4.80;77.20;;;;;;5091931;28;20105;-75
2024/01/15 08:14:06;;;;;;;6.50;3.37;;;4.70;77.80;;;;;;5092433;28;20032;-76
2024/01/15 08:16:31;;;;;;;5.43;2.77;;;4.80;77.20;;;;;;5091794;28;20412;-74
2024/01/15 08:18:57;;;;;;;6.30;2.67;;;4.70;77.20;;;;;;5089930;28;20079;-76
2024/01/15 08:21:23;;;;;;;5.57;2.80;;;4.70;77.20;;;;;;5091135;28;20020;-74
2024/01/15 08:23:49;;;;;;;4.47;2.40;;;4.70;77.20;;;;;;5092105;28;20415;-74
2024/01/15 08:26:14;;;;;;;5.07;2.20;;;4.80;77.20;;;;;;5091821;28;20042;-74
2024/01/15 08:28:40;;;;;;;4.60;2.00;;;4.80;77.20;;;;;;5091917;28;20027;-74
2024/01/15 08:31:06;;;;;;;4.20;2.00;;;4.80;77.20;;;;;;5091157;28;20036;-74
2024/01/15 08:33:32;;;;;;;4.43;2.20;;;4.80;77.20;;;;;;5092001;28;20044;-75
2024/01/15 08:35:58;;;;;;;4.23;2.00;;;4.80;77.20;;;;;;5093899;28;20055;-75
2024/01/15 08:38:25;;;;;;;4.43;1.80;;;4.80;77.20;;;;;;5093192;28;20126;-75
2024/01/15 08:40:53;;;;;;;3.57;1.80;;;4.90;77.20;;;;;;5091543;28;20035;-75
2024/01/15 08:43:19;;;;;;;4.60;2.00;;;4.80;77.00;;;;;;5092060;28;20099;-75
2024/01/15 08:45:45;;;;;;;4.47;1.90;;;4.90;77.00;;;;;;5093910;28;20119;-75
2024/01/15 08:48:10;;;;;;;4.47;1.83;;;4.90;77.10;;;;;;5093565;28;20024;-76
2024/01/15 08:50:36;;;;;;;6.93;2.30;;;4.80;77.70;;;;;;5094074;28;20111;-74
2024/01/15 08:53:02;;;;;;;4.53;2.00;;;4.80;77.10;;;;;;5094078;28;20028;-75
2024/01/15 08:55:28;;;;;;;4.83;2.23;;;4.90;77.20;;;;;;5108199;28;20032;-75
2024/01/15 08:57:54;;;;;;;6.00;1.97;;;4.80;77.20;;;;;;5093740;28;20039;-75
2024/01/15 09:00:20;;;;;;;5.13;2.10;;;4.80;77.20;;;;;;5093348;28;20135;-76
2024/01/15 09:02:46;;;;;;;5.90;2.50;;;4.80;77.20;;;;;;5093193;28;20036;-75
2024/01/15 09:05:11;;;;;;;4.97;2.17;;;4.80;77.20;;;;;;5079332;28;20021;-74
2024/01/15 09:07:37;;;;;;;5.07;2.37;;;4.80;77.20;;;;;;5093412;28;20047;-76
2024/01/15 09:10:03;;;;;;;4.63;2.00;;;4.80;77.20;;;;;;5092707;28;20089;-75
2024/01/15 09:12:29;;;;;;;5.47;2.13;;;4.90;77.20;;;;;;5092601;28;20032;-75
2024/01/15 09:14:55;;;;;;;6.43;2.00;;;4.80;77.00;;;;;;5093432;28;20023;-76
2024/01/15 09:17:23;;;;;;;8.87;2.30;;;4.80;77.10;;;;;;5092423;28;20438;-76
2024/01/15 09:19:49;;;;;;;6.03;2.40;;;4.80;77.10;;;;;;5075002;28;20081;-76
2024/01/15 09:22:18;;;;;;;6.20;2.07;;;4.80;77.20;;;;;;5093559;28;20028;-76
2024/01/15 09:24:45;;;;;;;4.67;2.20;;;4.80;77.20;;;;;;5072785;28;20341;-74
2024/01/15 09:27:11;;;;;;;5.30;1.73;;;4.80;77.20;;;;;;5092646;28;20103;-75
2024/01/15 09:29:39;;;;;;;7.33;2.27;;;4.80;77.20;;;;;;5089772;28;20788;-74
2024/01/15 09:32:07;;;;;;;4.50;2.00;;;4.90;77.20;;;;;;5091197;28;20027;-74
2024/01/15 09:34:33;;;;;;;6.47;2.47;;;4.90;77.20;;;;;;5091705;28;20131;-74
2024/01/15 09:36:59;;;;;;;6.17;2.00;;;4.90;77.20;;;;;;5093729;28;20038;-74
2024/01/15 09:39:28;;;;;;;6.40;2.27;;;4.90;77.10;;;;;;5093574;28;20032;-74
2024/01/15 09:41:54;;;;;;;6.87;2.40;;;4.90;77.20;;;;;;5092123;28;20028;-74
2024/01/15 09:44:21;;;;;;;7.10;2.23;;;5.00;77.20;;;;;;5093358;28;20391;-74
2024/01/15 09:46:50;;;;;;;5.70;2.23;;;5.10;77.20;;;;;;5093062;28;20426;-74
2024/01/15 09:49:16;;;;;;;6.77;2.63;;;5.10;77.10;;;;;;5092347;28;20104;-74
2024/01/15 09:51:42;;;;;;;8.40;2.57;;;5.10;77.00;;;;;;5092767;28;20157;-74
2024/01/15 09:54:09;;;;;;;8.33;2.20;;;5.20;77.00;;;;;;5093803;28;20035;-74
2024/01/15 09:56:38;;;;;;;5.53;2.20;;;5.20;76.90;;;;;;5092399;28;20119;-73
2024/01/15 09:59:04;;;;;;;7.10;1.90;;;5.20;76.90;;;;;;5093153;28;20031;-74
2024/01/15 10:01:31;;;;;;;5.40;1.60;;;5.20;76.80;;;;;;5092471;28;20020;-74
2024/01/15 10:03:58;;;;;;;3.67;1.60;;;5.20;76.80;;;;;;5093688;28;20027;-74
2024/01/15 10:06:27;;;;;;;3.40;1.40;;;5.10;76.90;;;;;;5093401;28;20357;-74
2024/01/15 10:08:56;;;;;;;7.13;1.33;;;5.10;76.90;;;;;;5091903;28;20154;-74
2024/01/15 10:11:22;;;;;;;6.13;1.53;;;5.10;77.00;;;;;;5091402;28;20157;-74
2024/01/15 10:13:52;;;;;;;1.97;1.00;;;5.10;76.90;;;;;;5097288;28;20057;-75
2024/01/15 10:16:17;;;;;;;4.23;1.17;;;5.20;76.90;;;;;;5097147;28;20024;-76
2024/01/15 10:18:43;;;;;;;4.33;1.10;;;5.30;76.90;;;;;;5096989;28;20093;-76
2024/01/15 10:21:09;;;;;;;3.53;1.13;;;5.30;76.70;;;;;;5093788;28;20020;-75
2024/01/15 10:23:36;;;;;;;2.90;1.13;;;5.40;76.70;;;;;;5095625;28;20455;-75
2024/01/15 10:26:02;;;;;;;3.20;1.00;;;5.40;76.60;;;;;;5096380;28;20055;-75
2024/01/15 10:28:30;;;;;;;2.83;1.00;;;5.60;76.40;;;;;;5096533;28;20024;-75
2024/01/15 10:30:58;;;;;;;4.00;0.90;;;5.80;76.10;;;;;;5093745;28;20082;-75
2024/01/15 10:33:25;;;;;;;3.17;0.87;;;6.00;75.70;;;;;;5095100;28;20044;-75
2024/01/15 10:35:55;;;;;;;5.77;1.37;;;6.00;75.40;;;;;;5095882;28;20441;-74
2024/01/15 10:38:22;;;;;;;3.03;1.07;;;5.90;75.40;;;;;;5096028;28;20072;-75
2024/01/15 10:40:55;;;;;;;4.87;1.30;;;5.80;75.50;;;;;;5095017;28;20028;-74
2024/01/15 10:43:21;;;;;;;4.30;1.53;;;5.70;75.60;;;;;;5092157;28;20036;-74
2024/01/15 10:45:49;;;;;;;3.60;1.10;;;5.50;75.80;;;;;;5095880;28;20032;-74
2024/01/15 10:48:18;;;;;;;4.97;1.50;;;5.30;76.20;;;;;;5095791;28;20039;-74
2024/01/15 10:50:45;;;;;;;5.93;1.40;;;5.30;76.40;;;;;;5093457;28;20051;-74
2024/01/15 10:53:16;;;;;;;4.93;1.57;;;5.30;76.50;;;;;;5096040;28;20078;-74
2024/01/15 10:55:43;;;;;;;5.30;1.83;;;5.30;76.50;;;;;;5096434;28;20445;-74
2024/01/15 10:58:09;;;;;;;6.07;1.50;;;5.30;76.60;;;;;;5094803;28;20410;-74
2024/01/15 11:00:37;;;;;;;7.13;2.20;;;5.30;76.70;;;;;;5094290;28;20016;-75
2024/01/15 11:03:08;;;;;;;6.57;2.20;;;5.30;76.70;;;;;;5094802;28;20020;-75
2024/01/15 11:05:43;;;;;;;5.50;2.13;;;5.40;76.70;;;;;;5095456;28;20020;-75
2024/01/15 11:08:09;;;;;;;5.30;2.03;;;5.40;76.50;;;;;;5089060;28;20344;-75
2024/01/15 11:10:52;;;;;;;6.20;2.40;;;5.40;76.50;;;;;;5095296;28;20043;-75
2024/01/15 11:13:32;;;;;;;6.40;2.20;;;5.30;76.40;;;;;;5094693;28;20028;-75
2024/01/15 11:16:17;;;;;;;8.33;2.13;;;5.30;76.40;;;;;;5095638;28;20039;-75
2024/01/15 11:19:00;;;;;;;5.27;2.17;;;5.30;76.60;;;;;;5094088;28;20169;-75
2024/01/15 11:21:27;;;;;;;5.40;2.30;;;5.30;76.70;;;;;;5092206;28;20024;-75
2024/01/15 11:23:58;;;;;;;6.03;2.40;;;5.30;76.70;;;;;;5093636;28;20020;-74
2024/01/15 11:26:46;;;;;;;6.00;2.30;;;5.30;76.80;;;;;;5095547;28;20020;-75
2024/01/15 11:29:27;;;;;;;5.20;2.30;;;5.30;76.70;;;;;;5106318;28;20020;-75
2024/01/15 11:31:58;;;;;;;5.10;1.90;;;5.40;76.70;;;;;;5095843;28;20036;-75
2024/01/15 11:34:54;;;;;;;4.65;1.83;;;5.40;76.70;;;;;;5094303;28;20112;-74
2024/01/15 11:37:23;;;;;;;6.43;2.20;;;5.30;76.60;;;;;;5076999;28;20046;-75
2024/01/15 11:39:51;;;;;;;7.73;2.17;;;5.40;76.80;;;;;;5094279;28;20051;-75
2024/01/15 11:42:18;;;;;;;4.73;1.67;;;5.40;76.90;;;;;;5091349;28;20455;-75
2024/01/15 11:44:44;;;;;;;6.77;2.00;;;5.50;76.80;;;;;;5093886;28;20020;-75
2024/01/15 11:47:14;;;;;;;7.23;2.07;;;5.50;76.70;;;;;;5093800;28;20024;-75
2024/01/15 11:49:58;;;;;;;7.77;2.03;;;5.60;76.60;;;;;;5093844;28;20105;-75
2024/01/15 11:52:24;;;;;;;7.30;2.07;;;5.60;76.60;;;;;;5092950;28;20084;-75
2024/01/15 11:55:12;;;;;;;4.70;2.00;;;5.70;76.50;;;;;;5094092;28;20069;-75
2024/01/15 11:57:43;;;;;;;6.23;2.20;;;5.70;76.40;;;;;;5093746;28;20023;-75
2024/01/15 12:00:11;;;;;;;7.13;1.87;;;5.70;76.40;;;;;;5092972;28;20089;-75
2024/01/15 12:02:41;;;;;;;5.00;2.10;;;5.70;76.30;;;;;;5093116;28;20024;-75
2024/01/15 12:05:12;;;;;;;5.73;1.73;;;5.70;76.30;;;;;;5092189;28;20020;-74
2024/01/15 12:07:48;;;;;;;5.90;1.67;;;5.60;76.30;;;;;;5093774;28;20025;-72
2024/01/15 12:10:18;;;;;;;5.13;1.50;;;5.70;76.40;;;;;;5093377;28;20031;-75
2024/01/15 12:13:12;;;;;;;5.77;1.60;;;5.70;76.40;;;;;;5095035;28;20032;-74
2024/01/15 12:15:40;;;;;;;4.63;1.67;;;5.70;76.30;;;;;;5092236;28;20040;-74
2024/01/15 12:18:08;;;;;;;7.03;1.60;;;5.70;76.40;;;;;;5099925;28;20131;-75
2024/01/15 12:20:34;;;;;;;7.07;1.50;;;5.70;76.40;;;;;;5091077;28;20026;-74
2024/01/15 12:23:00;;;;;;;2.57;1.17;;;5.70;76.40;;;;;;5088233;28;20104;-74
2024/01/15 12:25:29;;;;;;;4.53;1.40;;;5.80;76.50;;;;;;5088726;28;20024;-74
2024/01/15 12:27:56;;;;;;;5.13;1.70;;;5.80;76.30;;;;;;5091787;28;20047;-75
2024/01/15 12:30:21;;;;;;;5.57;1.60;;;5.80;76.20;;;;;;5083122;28;20494;-74
2024/01/15 12:32:48;;;;;;;8.53;1.57;;;5.80;76.20;;;;;;5094667;28;20043;-74
2024/01/15 12:35:14;;;;;;;5.23;1.63;;;5.90;76.30;;;;;;5093561;28;20344;-75
2024/01/15 12:37:41;;;;;;;6.07;1.77;;;6.00;76.30;;;;;;5092867;28;20058;-74
2024/01/15 12:40:09;;;;;;;5.80;1.37;;;6.00;76.80;;;;;;5075643;28;20020;-74
2024/01/15 12:42:40;;;;;;;4.53;1.37;;;6.00;76.10;;;;;;5094928;28;20523;-74
2024/01/15 12:45:06;;;;;;;6.87;2.00;;;6.00;76.20;;;;;;5075427;28;20032;-74
2024/01/15 12:47:32;;;;;;;6.83;1.50;;;6.00;76.30;;;;;;5091268;28;20025;-74
2024/01/15 12:50:01;;;;;;;5.53;1.57;;;5.90;76.30;;;;;;5072937;28;20023;-74
2024/01/15 12:52:30;;;;;;;7.67;1.97;;;5.90;77.00;;;;;;5095119;28;20024;-74
2024/01/15 12:54:56;;;;;;;5.37;1.90;;;5.90;76.50;;;;;;5090911;28;20024;-74
2024/01/15 12:57:22;;;;;;;9.73;3.00;;;5.90;76.50;;;;;;5093401;28;20360;-75